sensor_id;sensor_type;location;lat;lon;timestamp;pressure;altitude;pressure_sealevel;temperature;humidity
60228;BME280;46091;46.512;6.626;2023-01-28T08:02:10;97063.94;;;2.26;62.56
60228;BME280;46091;46.512;6.626;2023-01-28T08:04:13;97066.88;;;2.52;62.12
60228;BME280;46091;46.512;6.626;2023-01-28T08:06:16;97063.19;;;2.74;61.60
60228;BME280;46091;46.512;6.626;2023-01-28T08:08:19;97071.97;;;2.92;61.31
60228;BME280;46091;46.512;6.626;2023-01-28T08:10:22;97070.84;;;3.05;60.78
60228;BME280;46091;46.512;6.626;2023-01-28T08:12:25;97075.38;;;3.12;60.70
60228;BME280;46091;46.512;6.626;2023-01-28T08:14:28;97078.81;;;3.22;60.65
60228;BME280;46091;46.512;6.626;2023-01-28T08:16:31;97083.34;;;3.30;60.47
60228;BME280;46091;46.512;6.626;2023-01-28T08:18:35;97093.88;;;3.38;60.29
60228;BME280;46091;46.512;6.626;2023-01-28T08:20:38;97090.72;;;3.44;60.03
60228;BME280;46091;46.512;6.626;2023-01-28T08:22:41;97087.53;;;3.50;60.03
60228;BME280;46091;46.512;6.626;2023-01-28T08:24:44;97095.50;;;3.59;59.76
60228;BME280;46091;46.512;6.626;2023-01-28T08:26:47;97096.03;;;3.62;59.76
60228;BME280;46091;46.512;6.626;2023-01-28T08:28:50;97105.53;;;3.63;59.37
60228;BME280;46091;46.512;6.626;2023-01-28T08:30:52;97093.16;;;3.65;59.39
60228;BME280;46091;46.512;6.626;2023-01-28T08:32:56;97090.91;;;3.70;59.53
60228;BME280;46091;46.512;6.626;2023-01-28T08:35:00;97098.88;;;3.78;59.50
60228;BME280;46091;46.512;6.626;2023-01-28T08:37:03;97107.41;;;3.80;59.04
60228;BME280;46091;46.512;6.626;2023-01-28T08:39:06;97110.16;;;3.79;58.93
60228;BME280;46091;46.512;6.626;2023-01-28T08:41:09;97116.22;;;3.79;58.76
60228;BME280;46091;46.512;6.626;2023-01-28T08:43:12;97116.75;;;3.83;58.92
60228;BME280;46091;46.512;6.626;2023-01-28T08:45:15;97102.69;;;3.84;58.85
60228;BME280;46091;46.512;6.626;2023-01-28T08:47:18;97109.31;;;3.88;58.34
60228;BME280;46091;46.512;6.626;2023-01-28T08:49:21;97108.63;;;3.86;58.53
60228;BME280;46091;46.512;6.626;2023-01-28T08:51:25;97119.22;;;3.85;58.30
60228;BME280;46091;46.512;6.626;2023-01-28T08:53:28;97109.59;;;3.85;58.14
60228;BME280;46091;46.512;6.626;2023-01-28T08:55:32;97106.28;;;3.83;58.32
60228;BME280;46091;46.512;6.626;2023-01-28T08:57:35;97117.81;;;3.90;58.26
60228;BME280;46091;46.512;6.626;2023-01-28T08:59:38;97111.19;;;3.96;58.24
60228;BME280;46091;46.512;6.626;2023-01-28T09:01:45;97120.56;;;3.98;58.20
60228;BME280;46091;46.512;6.626;2023-01-28T09:03:48;97119.97;;;4.04;58.08
60228;BME280;46091;46.512;6.626;2023-01-28T09:05:51;97113.91;;;4.04;57.65
60228;BME280;46091;46.512;6.626;2023-01-28T09:07:55;97118.47;;;4.02;57.91
60228;BME280;46091;46.512;6.626;2023-01-28T09:09:57;97110.78;;;4.00;57.92
60228;BME280;46091;46.512;6.626;2023-01-28T09:12:00;97102.78;;;4.02;57.94
60228;BME280;46091;46.512;6.626;2023-01-28T09:14:03;97099.34;;;4.01;57.93
60228;BME280;46091;46.512;6.626;2023-01-28T09:16:07;97103.97;;;4.07;57.87
60228;BME280;46091;46.512;6.626;2023-01-28T09:18:10;97103.03;;;4.08;57.72
60228;BME280;46091;46.512;6.626;2023-01-28T09:20:13;97103.16;;;4.07;57.32
60228;BME280;46091;46.512;6.626;2023-01-28T09:22:16;97092.97;;;4.04;57.21
60228;BME280;46091;46.512;6.626;2023-01-28T09:24:21;97099.59;;;4.08;57.33
60228;BME280;46091;46.512;6.626;2023-01-28T09:26:24;97114.31;;;4.09;57.23
60228;BME280;46091;46.512;6.626;2023-01-28T09:28:26;97117.63;;;4.11;57.30
60228;BME280;46091;46.512;6.626;2023-01-28T09:30:30;97104.22;;;4.14;57.52
60228;BME280;46091;46.512;6.626;2023-01-28T09:32:36;97107.25;;;4.19;57.20
60228;BME280;46091;46.512;6.626;2023-01-28T09:34:39;97118.00;;;4.16;57.13
60228;BME280;46091;46.512;6.626;2023-01-28T09:36:42;97123.53;;;4.13;56.96
60228;BME280;46091;46.512;6.626;2023-01-28T09:38:45;97127.66;;;4.06;56.98
60228;BME280;46091;46.512;6.626;2023-01-28T09:40:49;97112.28;;;4.03;57.07
60228;BME280;46091;46.512;6.626;2023-01-28T09:43:01;97124.91;;;4.07;57.03
60228;BME280;46091;46.512;6.626;2023-01-28T09:45:12;97135.25;;;4.09;56.86
60228;BME280;46091;46.512;6.626;2023-01-28T09:47:21;97134.69;;;4.05;56.81
60228;BME280;46091;46.512;6.626;2023-01-28T09:49:32;97142.16;;;4.00;56.78
60228;BME280;46091;46.512;6.626;2023-01-28T09:51:40;97146.28;;;4.03;56.66
60228;BME280;46091;46.512;6.626;2023-01-28T09:53:44;97145.84;;;4.07;56.89
60228;BME280;46091;46.512;6.626;2023-01-28T09:55:54;97161.53;;;4.07;56.63
60228;BME280;46091;46.512;6.626;2023-01-28T09:57:57;97151.63;;;4.11;56.68
60228;BME280;46091;46.512;6.626;2023-01-28T10:00:00;97173.91;;;4.15;56.61
60228;BME280;46091;46.512;6.626;2023-01-28T10:02:18;97164.94;;;4.18;56.65
60228;BME280;46091;46.512;6.626;2023-01-28T10:04:38;97179.25;;;4.23;56.52
60228;BME280;46091;46.512;6.626;2023-01-28T10:06:55;97168.25;;;4.20;56.39
60228;BME280;46091;46.512;6.626;2023-01-28T10:09:18;97173.75;;;4.17;56.11
60228;BME280;46091;46.512;6.626;2023-01-28T10:11:38;97176.66;;;4.14;55.94
60228;BME280;46091;46.512;6.626;2023-01-28T10:13:45;97178.31;;;4.15;56.07
60228;BME280;46091;46.512;6.626;2023-01-28T10:15:59;97192.91;;;4.17;56.13
60228;BME280;46091;46.512;6.626;2023-01-28T10:18:08;97176.94;;;4.20;56.05
60228;BME280;46091;46.512;6.626;2023-01-28T10:20:22;97174.69;;;4.25;56.03
60228;BME280;46091;46.512;6.626;2023-01-28T10:22:31;97184.34;;;4.25;56.21
60228;BME280;46091;46.512;6.626;2023-01-28T10:24:40;97179.06;;;4.34;55.94
60228;BME280;46091;46.512;6.626;2023-01-28T10:26:47;97190.59;;;4.42;55.49
60228;BME280;46091;46.512;6.626;2023-01-28T10:28:53;97181.78;;;4.43;55.85
60228;BME280;46091;46.512;6.626;2023-01-28T10:30:57;97185.25;;;4.43;55.84
60228;BME280;46091;46.512;6.626;2023-01-28T10:33:03;97182.47;;;4.45;55.52
60228;BME280;46091;46.512;6.626;2023-01-28T10:35:07;97172.41;;;4.40;55.49
60228;BME280;46091;46.512;6.626;2023-01-28T10:37:11;97175.28;;;4.47;55.72
60228;BME280;46091;46.512;6.626;2023-01-28T10:39:19;97178.72;;;4.47;55.41
60228;BME280;46091;46.512;6.626;2023-01-28T10:41:23;97171.84;;;4.46;55.54
60228;BME280;46091;46.512;6.626;2023-01-28T10:43:31;97185.63;;;4.48;55.52
60228;BME280;46091;46.512;6.626;2023-01-28T10:45:39;97180.53;;;4.47;55.15
60228;BME280;46091;46.512;6.626;2023-01-28T10:47:47;97180.69;;;4.45;55.31
60228;BME280;46091;46.512;6.626;2023-01-28T10:49:53;97180.38;;;4.48;55.42
60228;BME280;46091;46.512;6.626;2023-01-28T10:52:09;97173.88;;;4.52;55.14
60228;BME280;46091;46.512;6.626;2023-01-28T10:54:20;97185.88;;;4.55;55.21
60228;BME280;46091;46.512;6.626;2023-01-28T10:56:25;97173.97;;;4.60;55.35
60228;BME280;46091;46.512;6.626;2023-01-28T10:58:33;97175.03;;;4.67;54.87
60228;BME280;46091;46.512;6.626;2023-01-28T11:00:37;97173.66;;;4.63;54.80
60228;BME280;46091;46.512;6.626;2023-01-28T11:02:40;97174.22;;;4.67;55.12
60228;BME280;46091;46.512;6.626;2023-01-28T11:04:43;97162.31;;;4.73;54.88
60228;BME280;46091;46.512;6.626;2023-01-28T11:06:54;97168.69;;;4.70;54.77
60228;BME280;46091;46.512;6.626;2023-01-28T11:08:57;97169.81;;;4.67;54.85
60228;BME280;46091;46.512;6.626;2023-01-28T11:11:12;97160.81;;;4.70;54.83
60228;BME280;46091;46.512;6.626;2023-01-28T11:13:17;97166.38;;;4.67;54.89
60228;BME280;46091;46.512;6.626;2023-01-28T11:15:22;97168.44;;;4.63;54.67
60228;BME280;46091;46.512;6.626;2023-01-28T11:17:26;97159.75;;;4.63;54.68
60228;BME280;46091;46.512;6.626;2023-01-28T11:19:33;97167.09;;;4.59;54.54
60228;BME280;46091;46.512;6.626;2023-01-28T11:21:36;97173.44;;;4.57;54.61
60228;BME280;46091;46.512;6.626;2023-01-28T11:23:48;97167.50;;;4.64;54.78
60228;BME280;46091;46.512;6.626;2023-01-28T11:26:01;97163.59;;;4.68;54.66
60228;BME280;46091;46.512;6.626;2023-01-28T11:28:15;97173.41;;;4.66;54.53
60228;BME280;46091;46.512;6.626;2023-01-28T11:30:22;97177.00;;;4.65;54.38
60228;BME280;46091;46.512;6.626;2023-01-28T11:32:26;97172.72;;;4.64;54.37
60228;BME280;46091;46.512;6.626;2023-01-28T11:34:33;97180.28;;;4.67;54.37
60228;BME280;46091;46.512;6.626;2023-01-28T11:36:37;97175.03;;;4.67;54.20
60228;BME280;46091;46.512;6.626;2023-01-28T11:38:52;97169.13;;;4.65;54.42
60228;BME280;46091;46.512;6.626;2023-01-28T11:40:57;97169.81;;;4.67;54.28
60228;BME280;46091;46.512;6.626;2023-01-28T11:43:01;97162.91;;;4.66;53.85
60228;BME280;46091;46.512;6.626;2023-01-28T11:45:10;97179.47;;;4.67;54.17
60228;BME280;46091;46.512;6.626;2023-01-28T11:47:31;97175.03;;;4.67;53.80
60228;BME280;46091;46.512;6.626;2023-01-28T11:49:52;97167.56;;;4.73;54.01
60228;BME280;46091;46.512;6.626;2023-01-28T11:52:08;97164.78;;;4.74;53.90
60228;BME280;46091;46.512;6.626;2023-01-28T11:54:26;97177.75;;;4.76;53.70
60228;BME280;46091;46.512;6.626;2023-01-28T11:56:51;97167.56;;;4.73;53.75
60228;BME280;46091;46.512;6.626;2023-01-28T11:59:09;97178.84;;;4.73;53.75
60228;BME280;46091;46.512;6.626;2023-01-28T12:01:21;97182.16;;;4.75;53.57
60228;BME280;46091;46.512;6.626;2023-01-28T12:03:41;97166.22;;;4.68;53.56
60228;BME280;46091;46.512;6.626;2023-01-28T12:05:48;97162.25;;;4.64;53.58
60228;BME280;46091;46.512;6.626;2023-01-28T12:07:55;97179.72;;;4.64;53.59
60228;BME280;46091;46.512;6.626;2023-01-28T12:10:10;97180.59;;;4.64;53.68
60228;BME280;46091;46.512;6.626;2023-01-28T12:12:34;97186.50;;;4.66;53.64
60228;BME280;46091;46.512;6.626;2023-01-28T12:14:56;97184.69;;;4.67;53.65
60228;BME280;46091;46.512;6.626;2023-01-28T12:17:11;97179.16;;;4.70;53.44
60228;BME280;46091;46.512;6.626;2023-01-28T12:19:33;97178.19;;;4.71;53.56
60228;BME280;46091;46.512;6.626;2023-01-28T12:21:47;97181.94;;;4.68;53.23
60228;BME280;46091;46.512;6.626;2023-01-28T12:24:08;97179.97;;;4.71;53.46
60228;BME280;46091;46.512;6.626;2023-01-28T12:26:19;97169.50;;;4.71;53.03
60228;BME280;46091;46.512;6.626;2023-01-28T12:28:31;97168.81;;;4.68;53.20
60228;BME280;46091;46.512;6.626;2023-01-28T12:30:55;97177.66;;;4.67;53.24
60228;BME280;46091;46.512;6.626;2023-01-28T12:33:10;97172.56;;;4.66;53.27
60228;BME280;46091;46.512;6.626;2023-01-28T12:35:28;97164.88;;;4.64;53.21
60228;BME280;46091;46.512;6.626;2023-01-28T12:37:43;97170.81;;;4.57;53.07
60228;BME280;46091;46.512;6.626;2023-01-28T12:40:01;97164.78;;;4.56;53.23
60228;BME280;46091;46.512;6.626;2023-01-28T12:42:11;97172.31;;;4.59;53.23
60228;BME280;46091;46.512;6.626;2023-01-28T12:44:22;97165.97;;;4.62;53.12
60228;BME280;46091;46.512;6.626;2023-01-28T12:46:37;97163.91;;;4.65;53.16
60228;BME280;46091;46.512;6.626;2023-01-28T12:48:44;97165.25;;;4.70;53.12
60228;BME280;46091;46.512;6.626;2023-01-28T12:50:54;97175.81;;;4.78;53.14
60228;BME280;46091;46.512;6.626;2023-01-28T12:53:04;97173.56;;;4.83;52.92
60228;BME280;46091;46.512;6.626;2023-01-28T12:55:17;97171.91;;;4.82;52.82
60228;BME280;46091;46.512;6.626;2023-01-28T12:57:23;97176.31;;;4.81;52.87
60228;BME280;46091;46.512;6.626;2023-01-28T12:59:29;97185.97;;;4.81;53.00
60228;BME280;46091;46.512;6.626;2023-01-28T13:01:37;97187.94;;;4.79;52.58
60228;BME280;46091;46.512;6.626;2023-01-28T13:03:48;97176.22;;;4.73;52.88
60228;BME280;46091;46.512;6.626;2023-01-28T13:05:58;97202.72;;;4.70;52.58
60228;BME280;46091;46.512;6.626;2023-01-28T13:08:09;97187.47;;;4.65;52.65
60228;BME280;46091;46.512;6.626;2023-01-28T13:10:18;97200.34;;;4.77;52.92
60228;BME280;46091;46.512;6.626;2023-01-28T13:12:24;97193.16;;;4.79;52.71
60228;BME280;46091;46.512;6.626;2023-01-28T13:14:29;97196.16;;;4.84;52.67
60228;BME280;46091;46.512;6.626;2023-01-28T13:16:33;97201.41;;;4.84;52.68
60228;BME280;46091;46.512;6.626;2023-01-28T13:18:45;97213.25;;;4.88;52.59
60228;BME280;46091;46.512;6.626;2023-01-28T13:20:49;97212.84;;;4.83;52.50
60228;BME280;46091;46.512;6.626;2023-01-28T13:23:01;97212.47;;;4.78;52.55
60228;BME280;46091;46.512;6.626;2023-01-28T13:25:17;97211.66;;;4.77;52.42
60228;BME280;46091;46.512;6.626;2023-01-28T13:27:23;97212.47;;;4.78;52.56
60228;BME280;46091;46.512;6.626;2023-01-28T13:29:29;97212.47;;;4.78;52.22
60228;BME280;46091;46.512;6.626;2023-01-28T13:31:37;97211.94;;;4.74;52.36
60228;BME280;46091;46.512;6.626;2023-01-28T13:33:41;97208.88;;;4.79;52.45
60228;BME280;46091;46.512;6.626;2023-01-28T13:35:52;97219.59;;;4.85;52.49
60228;BME280;46091;46.512;6.626;2023-01-28T13:37:56;97216.69;;;4.88;52.24
60228;BME280;46091;46.512;6.626;2023-01-28T13:40:20;97216.28;;;4.83;52.19
60228;BME280;46091;46.512;6.626;2023-01-28T13:42:25;97215.88;;;4.88;52.15
60228;BME280;46091;46.512;6.626;2023-01-28T13:44:31;97233.09;;;4.90;52.21
60228;BME280;46091;46.512;6.626;2023-01-28T13:46:34;97219.53;;;4.95;51.97
60228;BME280;46091;46.512;6.626;2023-01-28T13:48:41;97222.91;;;4.87;51.86
60228;BME280;46091;46.512;6.626;2023-01-28T13:50:46;97229.84;;;4.79;52.06
60228;BME280;46091;46.512;6.626;2023-01-28T13:52:57;97228.47;;;4.75;51.89
60228;BME280;46091;46.512;6.626;2023-01-28T13:55:04;97227.78;;;4.73;51.92
60228;BME280;46091;46.512;6.626;2023-01-28T13:59:52;97226.00;;;4.73;51.79
60228;BME280;46091;46.512;6.626;2023-01-28T14:04:52;97222.19;;;4.67;51.66
60228;BME280;46091;46.512;6.626;2023-01-28T14:09:45;97235.94;;;4.70;51.70
60228;BME280;46091;46.512;6.626;2023-01-28T14:14:46;97243.44;;;4.64;51.49
60228;BME280;46091;46.512;6.626;2023-01-28T14:16:59;97240.09;;;4.62;51.61
60228;BME280;46091;46.512;6.626;2023-01-28T14:19:09;97245.09;;;4.65;51.58
60228;BME280;46091;46.512;6.626;2023-01-28T14:21:16;97247.41;;;4.68;51.32
60228;BME280;46091;46.512;6.626;2023-01-28T14:23:21;97252.94;;;4.65;51.16
60228;BME280;46091;46.512;6.626;2023-01-28T14:25:33;97247.28;;;4.60;51.34
60228;BME280;46091;46.512;6.626;2023-01-28T14:27:41;97243.31;;;4.56;51.27
60228;BME280;46091;46.512;6.626;2023-01-28T14:29:54;97242.09;;;4.51;51.40
60228;BME280;46091;46.512;6.626;2023-01-28T14:32:05;97247.91;;;4.45;51.14
60228;BME280;46091;46.512;6.626;2023-01-28T14:34:18;97246.34;;;4.52;51.53
60228;BME280;46091;46.512;6.626;2023-01-28T14:36:24;97241.13;;;4.52;51.38
60228;BME280;46091;46.512;6.626;2023-01-28T14:38:26;97239.63;;;4.49;51.24
60228;BME280;46091;46.512;6.626;2023-01-28T14:40:30;97255.03;;;4.52;51.30
60228;BME280;46091;46.512;6.626;2023-01-28T14:42:36;97256.28;;;4.58;51.04
60228;BME280;46091;46.512;6.626;2023-01-28T14:44:43;97250.88;;;4.59;51.17
60228;BME280;46091;46.512;6.626;2023-01-28T14:46:54;97242.66;;;4.54;51.02
60228;BME280;46091;46.512;6.626;2023-01-28T14:49:17;97248.97;;;4.52;51.22
60228;BME280;46091;46.512;6.626;2023-01-28T14:51:36;97249.78;;;4.52;51.24
60228;BME280;46091;46.512;6.626;2023-01-28T14:54:03;97247.75;;;4.56;51.11
60228;BME280;46091;46.512;6.626;2023-01-28T14:56:16;97264.66;;;4.61;51.08
60228;BME280;46091;46.512;6.626;2023-01-28T14:58:26;97265.31;;;4.63;51.19
60228;BME280;46091;46.512;6.626;2023-01-28T15:00:31;97256.78;;;4.61;51.02
60228;BME280;46091;46.512;6.626;2023-01-28T15:02:42;97255.44;;;4.57;50.91
60228;BME280;46091;46.512;6.626;2023-01-28T15:04:45;97263.59;;;4.54;50.82
60228;BME280;46091;46.512;6.626;2023-01-28T15:06:48;97257.94;;;4.49;50.93
60228;BME280;46091;46.512;6.626;2023-01-28T15:08:52;97257.28;;;4.47;51.00
60228;BME280;46091;46.512;6.626;2023-01-28T15:10:55;97263.84;;;4.51;51.07
60228;BME280;46091;46.512;6.626;2023-01-28T15:13:02;97261.66;;;4.56;50.85
60228;BME280;46091;46.512;6.626;2023-01-28T15:15:08;97264.69;;;4.52;50.89
60228;BME280;46091;46.512;6.626;2023-01-28T15:17:20;97269.38;;;4.48;50.90
60228;BME280;46091;46.512;6.626;2023-01-28T15:19:29;97265.13;;;4.47;51.03
60228;BME280;46091;46.512;6.626;2023-01-28T15:21:33;97275.16;;;4.52;50.92
60228;BME280;46091;46.512;6.626;2023-01-28T15:23:37;97261.84;;;4.45;50.87
60228;BME280;46091;46.512;6.626;2023-01-28T15:25:41;97261.53;;;4.48;50.86
60228;BME280;46091;46.512;6.626;2023-01-28T15:27:44;97283.75;;;4.44;50.88
60228;BME280;46091;46.512;6.626;2023-01-28T15:29:51;97280.84;;;4.47;50.99
60228;BME280;46091;46.512;6.626;2023-01-28T15:31:55;97281.13;;;4.44;50.81
60228;BME280;46091;46.512;6.626;2023-01-28T15:33:58;97268.31;;;4.41;50.94
60228;BME280;46091;46.512;6.626;2023-01-28T15:36:04;97276.03;;;4.43;50.96
60228;BME280;46091;46.512;6.626;2023-01-28T15:38:07;97271.06;;;4.39;50.88
60228;BME280;46091;46.512;6.626;2023-01-28T15:40:17;97276.97;;;4.42;50.94
60228;BME280;46091;46.512;6.626;2023-01-28T15:42:23;97284.72;;;4.43;51.02
60228;BME280;46091;46.512;6.626;2023-01-28T15:44:31;97288.41;;;4.41;50.81
60228;BME280;46091;46.512;6.626;2023-01-28T15:46:38;97289.53;;;4.38;50.73
60228;BME280;46091;46.512;6.626;2023-01-28T15:48:43;97281.84;;;4.36;50.82
60228;BME280;46091;46.512;6.626;2023-01-28T15:50:47;97284.19;;;4.30;50.81
60228;BME280;46091;46.512;6.626;2023-01-28T15:52:52;97287.75;;;4.29;50.86
60228;BME280;46091;46.512;6.626;2023-01-28T15:54:56;97294.78;;;4.28;50.94
60228;BME280;46091;46.512;6.626;2023-01-28T15:57:08;97301.69;;;4.29;50.94
60228;BME280;46091;46.512;6.626;2023-01-28T15:59:23;97300.84;;;4.29;50.83
60228;BME280;46091;46.512;6.626;2023-01-28T16:01:26;97307.88;;;4.28;50.67
60228;BME280;46091;46.512;6.626;2023-01-28T16:03:29;97301.81;;;4.28;50.72
60228;BME280;46091;46.512;6.626;2023-01-28T16:05:37;97304.72;;;4.25;50.82
60228;BME280;46091;46.512;6.626;2023-01-28T16:07:43;97312.06;;;4.21;50.80
60228;BME280;46091;46.512;6.626;2023-01-28T16:09:51;97310.25;;;4.22;50.90
60228;BME280;46091;46.512;6.626;2023-01-28T16:12:01;97314.09;;;4.27;50.78
60228;BME280;46091;46.512;6.626;2023-01-28T16:14:04;97323.72;;;4.27;50.56
60228;BME280;46091;46.512;6.626;2023-01-28T16:16:07;97317.97;;;4.23;50.71
60228;BME280;46091;46.512;6.626;2023-01-28T16:18:22;97315.75;;;4.19;50.70
60228;BME280;46091;46.512;6.626;2023-01-28T16:20:28;97322.91;;;4.17;50.50
60228;BME280;46091;46.512;6.626;2023-01-28T16:22:33;97318.50;;;4.17;50.74
60228;BME280;46091;46.512;6.626;2023-01-28T16:24:47;97324.56;;;4.18;50.76
60228;BME280;46091;46.512;6.626;2023-01-28T16:26:59;97317.44;;;4.20;50.60
60228;BME280;46091;46.512;6.626;2023-01-28T16:29:12;97332.56;;;4.26;50.59
60228;BME280;46091;46.512;6.626;2023-01-28T16:31:15;97323.72;;;4.27;50.71
60228;BME280;46091;46.512;6.626;2023-01-28T16:33:19;97333.38;;;4.26;50.46
60228;BME280;46091;46.512;6.626;2023-01-28T16:35:25;97331.19;;;4.22;50.67
60228;BME280;46091;46.512;6.626;2023-01-28T16:37:48;97344.41;;;4.20;50.51
60228;BME280;46091;46.512;6.626;2023-01-28T16:39:51;97338.63;;;4.17;50.63
60228;BME280;46091;46.512;6.626;2023-01-28T16:41:54;97336.13;;;4.25;50.72
60228;BME280;46091;46.512;6.626;2023-01-28T16:43:58;97344.00;;;4.25;50.45
60228;BME280;46091;46.512;6.626;2023-01-28T16:46:10;97346.59;;;4.25;50.48
60228;BME280;46091;46.512;6.626;2023-01-28T16:48:13;97346.91;;;4.22;50.33
60228;BME280;46091;46.512;6.626;2023-01-28T16:50:16;97346.06;;;4.21;50.38
60228;BME280;46091;46.512;6.626;2023-01-28T16:52:22;97358.59;;;4.18;50.38
60228;BME280;46091;46.512;6.626;2023-01-28T16:54:25;97355.44;;;4.14;50.22
60228;BME280;46091;46.512;6.626;2023-01-28T16:56:28;97366.72;;;4.15;50.50
60228;BME280;46091;46.512;6.626;2023-01-28T16:58:47;97370.31;;;4.14;50.50
60228;BME280;46091;46.512;6.626;2023-01-28T17:00:52;97370.03;;;4.17;50.48
60228;BME280;46091;46.512;6.626;2023-01-28T17:02:55;97367.00;;;4.21;50.44
60228;BME280;46091;46.512;6.626;2023-01-28T17:04:59;97377.47;;;4.21;50.42
60228;BME280;46091;46.512;6.626;2023-01-28T17:07:01;97373.31;;;4.19;50.42
60228;BME280;46091;46.512;6.626;2023-01-28T17:09:04;97382.44;;;4.15;50.39
60228;BME280;46091;46.512;6.626;2023-01-28T17:11:07;97380.50;;;4.17;50.41
60228;BME280;46091;46.512;6.626;2023-01-28T17:13:10;97380.50;;;4.17;50.43
60228;BME280;46091;46.512;6.626;2023-01-28T17:15:13;97385.72;;;4.17;50.51
60228;BME280;46091;46.512;6.626;2023-01-28T17:17:17;97382.03;;;4.19;50.52
60228;BME280;46091;46.512;6.626;2023-01-28T17:19:20;97383.53;;;4.22;50.36
60228;BME280;46091;46.512;6.626;2023-01-28T17:21:23;97379.13;;;4.22;50.47
60228;BME280;46091;46.512;6.626;2023-01-28T17:23:26;97385.31;;;4.21;50.47
60228;BME280;46091;46.512;6.626;2023-01-28T17:25:28;97388.09;;;4.20;50.46
60228;BME280;46091;46.512;6.626;2023-01-28T17:27:31;97394.16;;;4.20;50.35
60228;BME280;46091;46.512;6.626;2023-01-28T17:29:35;97396.75;;;4.20;50.38
60228;BME280;46091;46.512;6.626;2023-01-28T17:31:38;97403.06;;;4.18;50.35
60228;BME280;46091;46.512;6.626;2023-01-28T17:33:42;97400.47;;;4.18;50.42
60228;BME280;46091;46.512;6.626;2023-01-28T17:35:45;97388.34;;;4.17;50.52
60228;BME280;46091;46.512;6.626;2023-01-28T17:37:51;97386.28;;;4.20;50.49
60228;BME280;46091;46.512;6.626;2023-01-28T17:39:54;97396.19;;;4.17;50.47
60228;BME280;46091;46.512;6.626;2023-01-28T17:41:57;97392.88;;;4.15;50.29
60228;BME280;46091;46.512;6.626;2023-01-28T17:43:59;97405.00;;;4.16;50.55
60228;BME280;46091;46.512;6.626;2023-01-28T17:46:09;97407.78;;;4.14;50.64
60228;BME280;46091;46.512;6.626;2023-01-28T17:48:12;97399.78;;;4.16;50.50
60228;BME280;46091;46.512;6.626;2023-01-28T17:50:16;97405.97;;;4.15;50.44
60228;BME280;46091;46.512;6.626;2023-01-28T17:52:19;97410.53;;;4.13;50.55
60228;BME280;46091;46.512;6.626;2023-01-28T17:54:22;97409.97;;;4.19;50.42
60228;BME280;46091;46.512;6.626;2023-01-28T17:56:27;97415.75;;;4.22;50.25
60228;BME280;46091;46.512;6.626;2023-01-28T17:58:31;97415.19;;;4.19;50.47
60228;BME280;46091;46.512;6.626;2023-01-28T18:00:34;97407.09;;;4.22;50.52
60228;BME280;46091;46.512;6.626;2023-01-28T18:02:36;97423.63;;;4.22;50.46
60228;BME280;46091;46.512;6.626;2023-01-28T18:04:40;97419.50;;;4.20;50.51
60228;BME280;46091;46.512;6.626;2023-01-28T18:06:45;97422.34;;;4.17;50.63
60228;BME280;46091;46.512;6.626;2023-01-28T18:08:49;97432.00;;;4.16;50.53
60228;BME280;46091;46.512;6.626;2023-01-28T18:10:52;97430.50;;;4.14;50.55
60228;BME280;46091;46.512;6.626;2023-01-28T18:12:56;97444.94;;;4.18;50.70
60228;BME280;46091;46.512;6.626;2023-01-28T18:14:59;97443.97;;;4.19;50.54
60228;BME280;46091;46.512;6.626;2023-01-28T18:17:01;97445.66;;;4.20;50.72
60228;BME280;46091;46.512;6.626;2023-01-28T18:19:04;97452.13;;;4.25;50.52
60228;BME280;46091;46.512;6.626;2023-01-28T18:21:19;97448.69;;;4.25;50.56
60228;BME280;46091;46.512;6.626;2023-01-28T18:23:23;97441.25;;;4.20;50.70
60228;BME280;46091;46.512;6.626;2023-01-28T18:25:26;97439.03;;;4.16;50.76
60228;BME280;46091;46.512;6.626;2023-01-28T18:27:29;97441.50;;;4.17;50.86
60228;BME280;46091;46.512;6.626;2023-01-28T18:29:32;97444.25;;;4.16;50.89
60228;BME280;46091;46.512;6.626;2023-01-28T18:31:34;97446.75;;;4.17;50.92
60228;BME280;46091;46.512;6.626;2023-01-28T18:33:37;97436.69;;;4.22;50.75
60228;BME280;46091;46.512;6.626;2023-01-28T18:35:41;97445.66;;;4.20;50.81
60228;BME280;46091;46.512;6.626;2023-01-28T18:37:43;97444.94;;;4.18;50.85
60228;BME280;46091;46.512;6.626;2023-01-28T18:39:47;97433.94;;;4.24;50.82
60228;BME280;46091;46.512;6.626;2023-01-28T18:41:51;97441.38;;;4.28;50.78
60228;BME280;46091;46.512;6.626;2023-01-28T18:43:55;97438.63;;;4.20;50.76
60228;BME280;46091;46.512;6.626;2023-01-28T18:45:58;97442.75;;;4.23;50.87
60228;BME280;46091;46.512;6.626;2023-01-28T18:48:01;97446.34;;;4.22;50.80
60228;BME280;46091;46.512;6.626;2023-01-28T18:50:04;97442.31;;;4.18;50.93
60228;BME280;46091;46.512;6.626;2023-01-28T18:52:07;97439.03;;;4.16;50.93
60228;BME280;46091;46.512;6.626;2023-01-28T18:54:11;97439.31;;;4.13;51.10
60228;BME280;46091;46.512;6.626;2023-01-28T18:56:16;97452.69;;;4.19;50.90
60228;BME280;46091;46.512;6.626;2023-01-28T18:58:19;97438.22;;;4.25;50.86
60228;BME280;46091;46.512;6.626;2023-01-28T19:00:22;97445.09;;;4.26;50.72
60228;BME280;46091;46.512;6.626;2023-01-28T19:02:24;97443.88;;;4.20;50.93
60228;BME280;46091;46.512;6.626;2023-01-28T19:04:27;97437.53;;;4.23;50.95
60228;BME280;46091;46.512;6.626;2023-01-28T19:06:31;97433.66;;;4.27;50.93
60228;BME280;46091;46.512;6.626;2023-01-28T19:08:34;97443.72;;;4.22;50.92
60228;BME280;46091;46.512;6.626;2023-01-28T19:10:37;97444.25;;;4.16;50.94
60228;BME280;46091;46.512;6.626;2023-01-28T19:12:42;97437.38;;;4.15;51.00
60228;BME280;46091;46.512;6.626;2023-01-28T19:14:44;97462.31;;;4.19;51.01
60228;BME280;46091;46.512;6.626;2023-01-28T19:16:48;97440.00;;;4.15;50.92
60228;BME280;46091;46.512;6.626;2023-01-28T19:18:51;97449.09;;;4.11;51.08
60228;BME280;46091;46.512;6.626;2023-01-28T19:20:55;97458.59;;;4.12;51.09
60228;BME280;46091;46.512;6.626;2023-01-28T19:22:57;97455.69;;;4.15;51.05
60228;BME280;46091;46.512;6.626;2023-01-28T19:25:00;97451.16;;;4.17;50.91
60228;BME280;46091;46.512;6.626;2023-01-28T19:27:03;97455.16;;;4.21;51.06
60228;BME280;46091;46.512;6.626;2023-01-28T19:29:09;97448.66;;;4.15;50.84
60228;BME280;46091;46.512;6.626;2023-01-28T19:31:15;97448.53;;;4.17;51.04
60228;BME280;46091;46.512;6.626;2023-01-28T19:33:20;97454.31;;;4.11;50.99